Time;durP1;ratioP1;P1;durP2;ratioP2;P2;SDS_P1;SDS_P2;PMS_P1;PMS_P2;Temp;Humidity;BMP_temperature;BMP_pressure;BME280_temperature;BME280_humidity;BME280_pressure;Samples;Min_cycle;Max_cycle;Signal;HPM_P1;HPM_P2
2024/02/19 13:24:38;;;;;;;1.50;1.10;;;;;;;0.53;78.91;101990.09;103417;1295;602081;-85
2024/02/19 13:27:06;;;;;;;1.50;1.00;;;;;;;0.74;78.63;101991.59;106034;1260;60218;-84
2024/02/19 13:29:34;;;;;;;2.10;1.00;;;;;;;0.77;78.29;101987.09;106046;1257;62211;-84
2024/02/19 13:32:01;;;;;;;1.00;0.90;;;;;;;0.70;78.25;101985.96;106044;1263;73446;-85
2024/02/19 13:34:29;;;;;;;1.80;0.80;;;;;;;0.67;77.68;101985.61;106045;1260;67897;-84
2024/02/19 13:36:57;;;;;;;5.20;1.70;;;;;;;0.67;77.86;101985.83;105948;1263;71835;-84
2024/02/19 13:39:25;;;;;;;3.10;1.40;;;;;;;0.68;78.09;101988.16;106088;1260;178274;-84
2024/02/19 13:41:53;;;;;;;4.80;1.70;;;;;;;0.70;77.47;101984.38;106092;1260;59204;-85
2024/02/19 13:44:21;;;;;;;2.00;1.10;;;;;;;0.71;77.91;101984.91;106126;1260;72228;-85
2024/02/19 13:46:49;;;;;;;4.30;1.70;;;;;;;0.72;77.43;101982.30;106337;1257;69965;-85
2024/02/19 13:49:17;;;;;;;4.10;1.60;;;;;;;0.73;77.81;101983.09;106137;1256;74862;-85
2024/02/19 13:51:45;;;;;;;6.50;1.90;;;;;;;0.75;78.56;101978.53;106101;1260;60857;-86
2024/02/19 13:54:14;;;;;;;3.10;1.40;;;;;;;0.74;78.38;101979.17;106145;1256;59962;-85
2024/02/19 13:56:41;;;;;;;3.00;1.60;;;;;;;0.71;79.56;101977.41;106217;1256;73986;-86
2024/02/19 13:59:10;;;;;;;2.90;1.50;;;;;;;0.69;79.38;101979.65;106132;1255;70991;-85
2024/02/19 14:01:38;;;;;;;5.10;1.90;;;;;;;0.69;79.05;101978.38;106246;1257;71876;-86
2024/02/19 14:04:09;;;;;;;3.90;1.70;;;;;;;0.71;78.30;101978.89;108119;1252;61256;-86
2024/02/19 14:06:37;;;;;;;4.50;2.80;;;;;;;0.72;78.48;101978.95;106328;1259;64349;-84
2024/02/19 14:09:04;;;;;;;4.50;2.10;;;;;;;0.73;78.31;101973.84;105728;1260;73875;-84
2024/02/19 14:11:32;;;;;;;4.20;1.90;;;;;;;0.74;77.71;101972.83;105837;1264;71001;-85
2024/02/19 14:14:01;;;;;;;5.30;2.40;;;;;;;0.71;77.32;101974.99;105786;1263;73115;-83
2024/02/19 14:16:31;;;;;;;6.60;4.20;;;;;;;0.67;78.45;101974.64;105791;1262;60263;-84
2024/02/19 14:18:59;;;;;;;10.50;3.40;;;;;;;0.65;78.63;101973.15;105784;1265;59483;-84
2024/02/19 14:21:28;;;;;;;6.70;4.20;;;;;;;0.62;78.37;101970.00;105923;1261;75236;-83
2024/02/19 14:23:56;;;;;;;11.20;5.00;;;;;;;0.64;77.81;101967.86;105932;1261;68831;-86
2024/02/19 14:26:24;;;;;;;7.30;3.30;;;;;;;0.61;77.89;101964.02;105873;1262;74833;-83
2024/02/19 14:28:52;;;;;;;5.40;2.50;;;;;;;0.60;77.99;101968.16;105815;1260;59659;-83
2024/02/19 14:31:20;;;;;;;12.60;7.10;;;;;;;0.56;78.38;101972.05;106057;1260;60803;-84
2024/02/19 14:33:49;;;;;;;24.10;13.20;;;;;;;0.51;78.45;101968.64;105971;1260;75320;-84
2024/02/19 14:36:18;;;;;;;12.20;6.30;;;;;;;0.43;78.99;101962.87;106771;1260;67664;-84
2024/02/19 14:38:46;;;;;;;14.90;8.70;;;;;;;0.36;79.79;101968.33;106131;1265;73596;-85
2024/02/19 14:41:14;;;;;;;18.20;10.00;;;;;;;0.29;80.09;101969.83;105738;1265;59557;-85
2024/02/19 14:43:42;;;;;;;15.10;7.20;;;;;;;0.21;80.30;101965.24;106054;1260;61888;-86
2024/02/19 14:46:10;;;;;;;9.00;5.60;;;;;;;0.12;80.98;101964.23;106071;1265;75248;-84
2024/02/19 14:48:40;;;;;;;10.80;6.30;;;;;;;0.04;81.91;101967.35;105858;1267;67343;-84
2024/02/19 14:51:08;;;;;;;5.10;3.20;;;;;;;-0.02;82.30;101974.39;105859;1262;73738;-84
2024/02/19 14:53:38;;;;;;;11.20;6.30;;;;;;;-0.10;82.36;101972.80;105951;1260;59778;-84
2024/02/19 14:56:06;;;;;;;23.80;13.00;;;;;;;-0.15;82.65;101972.88;105835;1261;59777;-85
2024/02/19 14:58:34;;;;;;;19.70;9.70;;;;;;;-0.21;83.20;101969.59;105941;1263;73913;-84
2024/02/19 15:01:02;;;;;;;20.40;9.70;;;;;;;-0.27;83.04;101971.66;105913;1264;69855;-85
2024/02/19 15:03:30;;;;;;;25.20;13.20;;;;;;;-0.32;83.20;101975.25;105870;1265;74551;-85
2024/02/19 15:05:58;;;;;;;16.00;8.70;;;;;;;-0.37;82.91;101977.24;105959;1262;59892;-87
2024/02/19 15:08:26;;;;;;;15.10;8.00;;;;;;;-0.45;82.78;101978.30;105845;1260;62207;-85
2024/02/19 15:10:54;;;;;;;18.70;10.00;;;;;;;-0.52;83.07;101980.72;105922;1262;75028;-85
2024/02/19 15:13:22;;;;;;;14.20;7.30;;;;;;;-0.60;83.42;101987.00;105934;1263;70942;-85
2024/02/19 15:15:50;;;;;;;9.70;5.20;;;;;;;-0.71;83.36;101987.41;106033;1260;73668;-85
2024/02/19 15:18:18;;;;;;;11.50;5.60;;;;;;;-0.79;83.63;101990.81;105776;1263;59751;-86
2024/02/19 15:20:47;;;;;;;23.90;9.00;;;;;;;-0.87;83.52;101992.57;105886;1265;59658;-85
2024/02/19 15:23:15;;;;;;;35.70;13.00;;;;;;;-0.94;83.71;101993.42;105869;1264;75284;-85
2024/02/19 15:25:43;;;;;;;38.00;11.30;;;;;;;-1.01;84.31;101993.58;105982;1259;69176;-85
2024/02/19 15:28:11;;;;;;;29.80;11.10;;;;;;;-1.10;84.80;101995.50;105995;1263;74906;-85
2024/02/19 15:30:39;;;;;;;13.20;5.40;;;;;;;-1.19;85.03;101994.91;106084;1265;59911;-85
2024/02/19 15:33:07;;;;;;;11.20;4.80;;;;;;;-1.27;85.92;101994.19;105951;1260;61088;-84
2024/02/19 15:35:35;;;;;;;15.90;7.10;;;;;;;-1.37;86.22;101995.96;105919;1260;72892;-84
2024/02/19 15:38:03;;;;;;;17.50;5.80;;;;;;;-1.45;86.73;101999.29;105907;1259;70945;-85
2024/02/19 15:40:32;;;;;;;29.40;15.10;;;;;;;-1.54;87.16;101999.33;106140;1259;74926;-85
2024/02/19 15:43:01;;;;;;;43.70;22.30;;;;;;;-1.63;87.79;102003.52;105939;1260;59816;-85
2024/02/19 15:45:29;;;;;;;47.60;25.30;;;;;;;-1.69;88.26;102005.20;105907;1265;59870;-85
2024/02/19 15:47:56;;;;;;;40.20;19.20;;;;;;;-1.73;88.66;102004.21;106005;1259;72958;-85
2024/02/19 15:50:24;;;;;;;28.50;12.30;;;;;;;-1.78;89.39;102005.11;106301;1260;70709;-85
2024/02/19 15:52:52;;;;;;;43.20;19.80;;;;;;;-1.87;90.29;102002.86;105982;1260;72075;-85
2024/02/19 15:55:31;;;;;;;17.10;7.50;;;;;;;-1.93;90.83;102010.58;105917;1262;59584;-85
2024/02/19 15:57:59;;;;;;;16.30;6.60;;;;;;;-1.97;91.84;102011.29;106045;1260;61346;-85
2024/02/19 16:00:29;;;;;;;53.30;16.40;;;;;;;-2.00;93.10;102008.98;105944;1260;71321;-85
2024/02/19 16:02:57;;;;;;;38.40;13.10;;;;;;;-2.03;93.43;102008.73;105982;1265;71431;-86
2024/02/19 16:05:26;;;;;;;24.70;8.60;;;;;;;-2.04;93.74;102010.16;105869;1261;74910;-86
2024/02/19 16:07:54;;;;;;;21.90;8.50;;;;;;;-2.11;94.45;102007.41;106051;1262;61316;-85
2024/02/19 16:10:22;;;;;;;41.10;22.50;;;;;;;-2.17;94.97;102006.74;105975;1262;59668;-85
2024/02/19 16:12:50;;;;;;;66.20;36.70;;;;;;;-2.22;95.52;102007.95;106109;1261;75743;-85
2024/02/19 16:15:20;;;;;;;40.90;17.70;;;;;;;-2.25;95.82;102006.52;105946;1260;68625;-85
2024/02/19 16:17:51;;;;;;;26.50;11.10;;;;;;;-2.26;95.58;102009.83;106135;1260;75080;-85
2024/02/19 16:20:19;;;;;;;17.30;7.30;;;;;;;-2.30;95.95;102007.56;105936;1263;59766;-84
2024/02/19 16:22:50;;;;;;;18.80;8.50;;;;;;;-2.32;96.06;102011.90;106028;1259;61208;-84
2024/02/19 16:25:18;;;;;;;24.70;10.80;;;;;;;-2.32;96.21;102008.48;105927;1260;73906;-85
2024/02/19 16:27:47;;;;;;;454.10;208.70;;;;;;;-2.30;96.17;102012.61;106090;1265;67666;-85
2024/02/19 16:30:15;;;;;;;277.20;110.50;;;;;;;-2.32;96.30;102013.48;105937;1263;72841;-85
2024/02/19 16:32:43;;;;;;;76.00;28.40;;;;;;;-2.33;96.46;102010.54;106455;1263;62241;-85
2024/02/19 16:35:11;;;;;;;116.20;42.50;;;;;;;-2.33;96.64;102012.58;106127;1260;62517;-85
2024/02/19 16:37:40;;;;;;;79.50;26.30;;;;;;;-2.33;96.67;102014.16;106095;1264;75292;-85
2024/02/19 16:40:08;;;;;;;53.90;19.80;;;;;;;-2.31;96.58;102015.42;106005;1260;71464;-85
2024/02/19 16:42:37;;;;;;;135.70;52.70;;;;;;;-2.32;96.34;102013.86;105970;1263;75322;-85
2024/02/19 16:45:06;;;;;;;244.70;88.70;;;;;;;-2.33;96.52;102011.45;106163;1262;62407;-85
2024/02/19 16:47:33;;;;;;;156.00;51.00;;;;;;;-2.34;96.55;102008.89;106285;1263;59507;-85
2024/02/19 16:50:02;;;;;;;128.70;38.00;;;;;;;-2.37;96.72;102016.55;106022;1260;73186;-85
2024/02/19 16:52:30;;;;;;;78.80;25.40;;;;;;;-2.36;96.81;102015.71;106028;1263;70746;-85
2024/02/19 16:54:58;;;;;;;20.20;7.70;;;;;;;-2.38;96.80;102018.73;106076;1262;71907;-85
2024/02/19 16:57:25;;;;;;;15.20;5.50;;;;;;;-2.37;97.31;102019.75;106057;1259;63879;-85
2024/02/19 16:59:53;;;;;;;12.60;5.80;;;;;;;-2.37;98.01;102013.51;106004;1266;60926;-83
2024/02/19 17:02:21;;;;;;;12.90;5.70;;;;;;;-2.39;99.44;102010.57;106213;1265;75253;-84
2024/02/19 17:04:51;;;;;;;71.70;32.40;;;;;;;-2.39;100.00;102018.52;106171;1260;67851;-84
2024/02/19 17:07:19;;;;;;;84.00;36.80;;;;;;;-2.42;100.00;102017.17;106118;1262;73857;-84
2024/02/19 17:09:47;;;;;;;72.70;31.70;;;;;;;-2.43;100.00;102017.67;106076;1263;60631;-84
2024/02/19 17:12:15;;;;;;;47.70;23.00;;;;;;;-2.44;100.00;102016.89;106135;1259;59877;-84
2024/02/19 17:14:44;;;;;;;42.00;18.70;;;;;;;-2.44;100.00;102012.04;106178;1260;74915;-84
2024/02/19 17:17:12;;;;;;;34.20;15.20;;;;;;;-2.45;100.00;102010.38;105978;1258;68576;-83
2024/02/19 17:19:40;;;;;;;46.10;20.00;;;;;;;-2.46;100.00;102007.91;105959;1260;71983;-84
2024/02/19 17:22:08;;;;;;;44.50;18.20;;;;;;;-2.45;100.00;102006.27;105978;1265;60241;-84
2024/02/19 17:24:38;;;;;;;39.80;16.60;;;;;;;-2.47;100.00;102002.91;106024;1260;62592;-84
2024/02/19 17:27:07;;;;;;;54.80;23.40;;;;;;;-2.49;100.00;102007.17;105996;1264;71969;-84
2024/02/19 17:29:35;;;;;;;40.30;18.40;;;;;;;-2.50;100.00;102004.44;106099;1262;71351;-84
2024/02/19 17:32:03;;;;;;;42.20;19.40;;;;;;;-2.54;100.00;102004.10;105937;1261;70713;-83
2024/02/19 17:34:31;;;;;;;57.10;22.90;;;;;;;-2.54;100.00;102007.71;106163;1259;60389;-84
2024/02/19 17:37:00;;;;;;;31.40;12.40;;;;;;;-2.54;100.00;102007.89;106017;1260;61015;-83
2024/02/19 17:39:28;;;;;;;17.00;7.00;;;;;;;-2.53;100.00;102008.38;106046;1260;76049;-84
2024/02/19 17:41:55;;;;;;;17.00;7.30;;;;;;;-2.54;100.00;102011.42;105977;1265;70645;-84
2024/02/19 17:44:23;;;;;;;18.30;7.70;;;;;;;-2.53;100.00;102009.73;106053;1262;71812;-84
2024/02/19 17:46:51;;;;;;;19.70;8.60;;;;;;;-2.50;100.00;102006.02;106095;1264;61249;-84
2024/02/19 17:49:19;;;;;;;39.70;14.70;;;;;;;-2.47;100.00;102005.20;106068;1260;61158;-85
2024/02/19 17:51:50;;;;;;;40.60;17.90;;;;;;;-2.36;100.00;102004.33;105903;1260;76405;-84
2024/02/19 17:54:22;;;;;;;46.70;18.80;;;;;;;-2.04;100.00;102003.47;105975;1264;68387;-84
2024/02/19 17:56:50;;;;;;;42.30;18.80;;;;;;;-1.80;100.00;102002.42;105744;1264;74926;-84
2024/02/19 17:59:17;;;;;;;43.70;19.80;;;;;;;-1.53;100.00;101999.45;106224;1264;61192;-84
2024/02/19 18:01:47;;;;;;;25.60;11.30;;;;;;;-1.43;100.00;101998.77;106024;1264;60597;-84
2024/02/19 18:04:17;;;;;;;12.50;5.40;;;;;;;-1.20;100.00;101997.69;106049;1261;74862;-84
2024/02/19 18:06:45;;;;;;;15.00;6.80;;;;;;;-0.94;100.00;101995.39;106073;1260;70777;-84
2024/02/19 18:09:13;;;;;;;32.90;15.20;;;;;;;-0.82;100.00;101994.21;105995;1265;71782;-84
2024/02/19 18:11:41;;;;;;;44.50;20.90;;;;;;;-0.75;100.00;101989.65;106033;1265;60536;-85
2024/02/19 18:14:09;;;;;;;62.60;27.10;;;;;;;-0.59;100.00;101987.86;106046;1260;62296;-85
2024/02/19 18:16:40;;;;;;;74.20;31.30;;;;;;;-0.52;100.00;101992.13;106005;1260;74846;-85
2024/02/19 18:19:08;;;;;;;68.50;27.70;;;;;;;-0.55;100.00;101987.11;106051;1260;71048;-83
2024/02/19 18:21:44;;;;;;;55.30;23.50;;;;;;;-0.54;100.00;101987.48;106029;1260;75021;-85
2024/02/19 18:24:12;;;;;;;63.80;29.20;;;;;;;-0.48;100.00;101991.52;106002;1259;61874;-85
2024/02/19 18:26:39;;;;;;;63.90;29.00;;;;;;;-0.39;100.00;101985.02;106250;1264;61506;-85
2024/02/19 18:29:13;;;;;;;48.60;24.00;;;;;;;-0.35;100.00;101979.73;105897;1260;76130;-83
2024/02/19 18:31:41;;;;;;;39.80;18.60;;;;;;;-0.43;100.00;101975.57;106106;1260;69824;-83
2024/02/19 18:34:09;;;;;;;27.00;12.10;;;;;;;-0.34;100.00;101978.18;106140;1263;72385;-83
2024/02/19 18:36:37;;;;;;;19.40;8.20;;;;;;;-0.30;100.00;101977.03;105962;1263;60479;-85
2024/02/19 18:39:06;;;;;;;17.90;7.70;;;;;;;-0.28;100.00;101977.70;106000;1259;62270;-85
2024/02/19 18:41:34;;;;;;;11.40;5.50;;;;;;;-0.19;100.00;101977.83;105890;1260;73123;-85
2024/02/19 18:44:05;;;;;;;10.60;5.00;;;;;;;-0.19;100.00;101975.30;106166;1260;68760;-88
2024/02/19 18:46:35;;;;;;;16.10;6.40;;;;;;;-0.12;100.00;101975.05;106032;1265;72455;-86
2024/02/19 18:49:04;;;;;;;25.30;11.50;;;;;;;-0.14;100.00;101975.77;106025;1263;60669;-85
2024/02/19 18:51:33;;;;;;;93.00;37.60;;;;;;;-0.05;100.00;101980.17;106008;1262;60344;-85
2024/02/19 18:54:00;;;;;;;94.70;36.70;;;;;;;0.06;100.00;101980.59;106363;1264;73516;-86
2024/02/19 18:56:29;;;;;;;52.30;22.10;;;;;;;0.09;100.00;101981.48;106028;1259;67950;-86
2024/02/19 18:58:57;;;;;;;23.50;9.50;;;;;;;0.01;100.00;101983.92;106092;1257;72501;-85
2024/02/19 19:01:25;;;;;;;18.70;7.80;;;;;;;-0.01;100.00;101985.07;106134;1258;63371;-86
2024/02/19 19:03:53;;;;;;;18.00;7.80;;;;;;;-0.01;100.00;101981.52;106309;1257;60303;-87
2024/02/19 19:06:23;;;;;;;15.30;7.10;;;;;;;0.03;100.00;101982.50;106408;1262;76038;-85
2024/02/19 19:08:51;;;;;;;17.20;7.40;;;;;;;0.02;100.00;101979.14;106240;1260;70332;-85
2024/02/19 19:11:18;;;;;;;24.60;11.30;;;;;;;0.09;100.00;101978.05;106119;1263;71544;-85
2024/02/19 19:13:46;;;;;;;22.10;9.30;;;;;;;0.05;99.95;101980.11;106314;1257;59348;-85
2024/02/19 19:16:14;;;;;;;20.90;9.30;;;;;;;-0.04;100.00;101975.51;106211;1258;61990;-85
2024/02/19 19:18:42;;;;;;;30.20;12.00;;;;;;;-0.03;100.00;101981.71;106131;1255;75744;-85
2024/02/19 19:21:10;;;;;;;19.00;8.30;;;;;;;-0.00;100.00;101984.44;106117;1257;70837;-85
2024/02/19 19:23:38;;;;;;;16.00;7.30;;;;;;;-0.04;100.00;101988.20;106235;1257;74843;-85
2024/02/19 19:26:06;;;;;;;16.50;7.70;;;;;;;-0.06;100.00;101985.95;106367;1257;60454;-85
2024/02/19 19:28:34;;;;;;;17.80;7.30;;;;;;;-0.13;100.00;101983.89;106355;1261;61866;-84
2024/02/19 19:31:02;;;;;;;22.00;9.00;;;;;;;-0.08;100.00;101982.46;106280;1261;76118;-84
2024/02/19 19:33:30;;;;;;;17.70;8.20;;;;;;;-0.14;100.00;101981.13;106493;1259;69540;-84
2024/02/19 19:35:58;;;;;;;33.30;14.60;;;;;;;-0.07;100.00;101983.27;106287;1257;74853;-85
2024/02/19 19:38:25;;;;;;;30.10;14.10;;;;;;;-0.03;100.00;101980.98;106266;1257;60424;-84
2024/02/19 19:40:56;;;;;;;31.60;14.20;;;;;;;0.04;100.00;101981.09;106304;1260;62357;-84
2024/02/19 19:43:25;;;;;;;37.50;18.30;;;;;;;-0.07;100.00;101984.28;106142;1258;74356;-85
2024/02/19 19:45:53;;;;;;;32.00;16.20;;;;;;;-0.13;100.00;101981.95;106291;1257;69531;-84
2024/02/19 19:48:27;;;;;;;40.00;16.60;;;;;;;-0.19;100.00;101982.96;106543;1257;74662;-84
2024/02/19 19:50:56;;;;;;;26.00;11.70;;;;;;;-0.16;100.00;101977.45;106235;1257;62012;-84
2024/02/19 19:53:25;;;;;;;21.40;10.70;;;;;;;-0.01;100.00;101975.77;106138;1257;60582;-84
2024/02/19 19:55:54;;;;;;;24.20;11.30;;;;;;;0.02;100.00;101980.60;106394;1258;74879;-84
2024/02/19 19:58:22;;;;;;;20.60;9.10;;;;;;;-0.04;100.00;101980.94;106376;1263;69648;-85
2024/02/19 20:00:59;;;;;;;18.50;8.40;;;;;;;-0.04;100.00;101973.89;106218;1259;73459;-85
2024/02/19 20:03:27;;;;;;;28.80;11.20;;;;;;;-0.07;100.00;101965.23;106152;1262;60438;-85
2024/02/19 20:05:55;;;;;;;15.00;8.00;;;;;;;-0.04;100.00;101960.98;106117;1257;61210;-85
2024/02/19 20:08:23;;;;;;;19.80;10.10;;;;;;;-0.09;100.00;101963.38;106151;1258;76835;-85
2024/02/19 20:10:51;;;;;;;31.30;14.20;;;;;;;-0.07;100.00;101968.52;106388;1262;67331;-85
2024/02/19 20:13:19;;;;;;;55.30;17.70;;;;;;;-0.09;100.00;101967.66;106128;1263;74872;-85
2024/02/19 20:15:47;;;;;;;96.70;25.20;;;;;;;-0.03;100.00;101970.73;106219;1258;60473;-84
2024/02/19 20:18:15;;;;;;;90.40;24.00;;;;;;;0.01;100.00;101970.86;106121;1260;59365;-84
2024/02/19 20:20:43;;;;;;;66.40;21.70;;;;;;;0.03;100.00;101970.64;106236;1257;74796;-84
2024/02/19 20:23:11;;;;;;;22.40;9.60;;;;;;;0.07;100.00;101972.55;106215;1260;69726;-85
2024/02/19 20:25:38;;;;;;;51.30;17.40;;;;;;;0.15;100.00;101972.16;106173;1263;71855;-84
2024/02/19 20:28:06;;;;;;;21.80;8.60;;;;;;;0.14;100.00;101972.48;106149;1261;61437;-84
2024/02/19 20:30:38;;;;;;;16.60;6.70;;;;;;;0.17;100.00;101974.57;106192;1256;60426;-85
2024/02/19 20:33:05;;;;;;;17.10;7.00;;;;;;;0.21;100.00;101974.18;106279;1263;74385;-84
2024/02/19 20:35:34;;;;;;;21.20;8.90;;;;;;;0.28;100.00;101972.81;106200;1256;70651;-85
2024/02/19 20:38:01;;;;;;;23.50;9.10;;;;;;;0.32;100.00;101975.09;106248;1261;73640;-85
2024/02/19 20:40:29;;;;;;;27.20;11.80;;;;;;;0.35;100.00;101970.94;106533;1257;62058;-85
2024/02/19 20:42:57;;;;;;;40.70;16.30;;;;;;;0.29;100.00;101973.69;106545;1261;63012;-85
2024/02/19 20:45:28;;;;;;;33.30;15.00;;;;;;;0.30;100.00;101974.08;106544;1262;74740;-84
2024/02/19 20:47:55;;;;;;;38.60;16.80;;;;;;;0.31;100.00;101970.35;106734;1255;67990;-85
2024/02/19 20:50:25;;;;;;;45.90;20.40;;;;;;;0.40;100.00;101964.45;106500;1263;72995;-85
2024/02/19 20:52:56;;;;;;;34.60;15.50;;;;;;;0.50;99.98;101960.31;106444;1257;61710;-85
2024/02/19 20:55:24;;;;;;;31.80;12.90;;;;;;;0.49;99.85;101958.13;106445;1258;61015;-84
2024/02/19 20:57:54;;;;;;;23.40;9.20;;;;;;;0.48;100.00;101956.10;106752;1257;72305;-86
2024/02/19 21:00:22;;;;;;;22.80;9.90;;;;;;;0.42;100.00;101961.86;106562;1258;70702;-86
2024/02/19 21:02:50;;;;;;;21.50;8.80;;;;;;;0.47;99.96;101962.84;106606;1260;75453;-86
2024/02/19 21:05:19;;;;;;;18.30;9.00;;;;;;;0.43;99.99;101959.64;106513;1263;60450;-86
2024/02/19 21:07:47;;;;;;;20.70;9.70;;;;;;;0.34;100.00;101960.32;108798;1256;60989;-84
2024/02/19 21:10:16;;;;;;;45.80;16.60;;;;;;;0.32;100.00;101957.17;106191;1258;73677;-86
2024/02/19 21:12:43;;;;;;;29.90;12.70;;;;;;;0.29;100.00;101957.61;106258;1261;68445;-84
2024/02/19 21:15:11;;;;;;;20.60;8.60;;;;;;;0.20;100.00;101960.80;106058;1258;75368;-84
2024/02/19 21:17:39;;;;;;;33.80;13.50;;;;;;;0.18;100.00;101962.49;106136;1261;60592;-84
2024/02/19 21:20:09;;;;;;;35.70;14.10;;;;;;;0.20;100.00;101962.38;106204;1257;64003;-86
2024/02/19 21:22:37;;;;;;;31.10;13.60;;;;;;;0.18;100.00;101965.69;106258;1256;72733;-86
2024/02/19 21:25:11;;;;;;;26.20;12.20;;;;;;;0.12;100.00;101966.26;105970;1261;68801;-85
2024/02/19 21:27:39;;;;;;;24.10;11.60;;;;;;;0.06;100.00;101967.79;106305;1257;72098;-86
2024/02/19 21:30:08;;;;;;;26.10;13.20;;;;;;;0.08;100.00;101965.73;106179;1256;62238;-86
2024/02/19 21:32:37;;;;;;;29.20;13.20;;;;;;;0.12;100.00;101965.55;106097;1257;60531;-85
2024/02/19 21:35:09;;;;;;;35.20;15.90;;;;;;;0.10;100.00;101967.16;106090;1256;73903;-86
2024/02/19 21:37:38;;;;;;;33.00;15.40;;;;;;;0.11;100.00;101966.93;106114;1257;67171;-86
2024/02/19 21:40:08;;;;;;;33.60;15.60;;;;;;;0.12;100.00;101968.60;106087;1257;72528;-86
2024/02/19 21:42:40;;;;;;;31.80;13.60;;;;;;;0.19;100.00;101969.96;106163;1257;62084;-86
2024/02/19 21:45:08;;;;;;;28.70;13.80;;;;;;;0.17;100.00;101966.17;105844;1261;60349;-85
2024/02/19 21:47:36;;;;;;;32.60;15.30;;;;;;;0.18;100.00;101965.39;106088;1257;72590;-84
2024/02/19 21:50:09;;;;;;;32.40;14.10;;;;;;;0.19;100.00;101964.14;106271;1257;69089;-85
2024/02/19 21:52:37;;;;;;;26.60;12.70;;;;;;;0.09;100.00;101968.18;106191;1257;72729;-85
2024/02/19 21:55:06;;;;;;;32.00;12.80;;;;;;;0.06;100.00;101967.52;106096;1257;60450;-86
2024/02/19 21:57:35;;;;;;;29.90;12.60;;;;;;;0.08;100.00;101962.44;106159;1260;60509;-86
2024/02/19 22:00:05;;;;;;;27.10;12.00;;;;;;;0.04;100.00;101959.76;106032;1256;74111;-86
2024/02/19 22:02:33;;;;;;;27.40;12.30;;;;;;;-0.08;100.00;101956.44;106180;1262;66430;-85
2024/02/19 22:05:03;;;;;;;36.20;17.30;;;;;;;-0.20;100.00;101956.80;106124;1260;72799;-85
2024/02/19 22:07:32;;;;;;;27.80;12.20;;;;;;;-0.28;100.00;101955.48;106242;1260;60433;-86
2024/02/19 22:10:02;;;;;;;36.90;15.00;;;;;;;-0.26;100.00;101950.98;106208;1256;60450;-82
2024/02/19 22:12:30;;;;;;;32.00;12.80;;;;;;;-0.28;100.00;101956.76;106305;1257;72659;-83
2024/02/19 22:14:59;;;;;;;26.00;11.30;;;;;;;-0.37;100.00;101956.86;106181;1262;67584;-83
2024/02/19 22:17:28;;;;;;;26.60;11.70;;;;;;;-0.36;100.00;101957.34;106174;1257;74384;-84
2024/02/19 22:19:56;;;;;;;25.30;10.90;;;;;;;-0.48;100.00;101962.48;106219;1262;60433;-84
2024/02/19 22:22:24;;;;;;;25.60;10.90;;;;;;;-0.60;100.00;101961.56;106208;1257;60537;-84
2024/02/19 22:24:52;;;;;;;24.40;11.00;;;;;;;-0.62;100.00;101968.16;106362;1259;73840;-84
2024/02/19 22:27:20;;;;;;;27.60;11.60;;;;;;;-0.65;100.00;101964.89;106159;1259;69778;-84
2024/02/19 22:29:48;;;;;;;28.20;11.80;;;;;;;-0.71;100.00;101969.38;106213;1257;73183;-84
2024/02/19 22:32:15;;;;;;;28.60;11.80;;;;;;;-0.74;100.00;101962.94;106126;1256;60293;-85
2024/02/19 22:34:46;;;;;;;23.20;11.10;;;;;;;-0.83;100.00;101966.80;106067;1258;60435;-82
2024/02/19 22:37:14;;;;;;;23.60;11.60;;;;;;;-0.82;100.00;101963.91;106198;1256;72687;-84
2024/02/19 22:39:42;;;;;;;26.20;10.50;;;;;;;-0.75;100.00;101962.27;106190;1262;67699;-82
2024/02/19 22:42:10;;;;;;;24.30;11.10;;;;;;;-0.73;100.00;101960.27;105985;1257;72665;-82
2024/02/19 22:44:38;;;;;;;25.30;11.20;;;;;;;-0.73;100.00;101961.33;106204;1257;60484;-82
2024/02/19 22:47:09;;;;;;;23.30;11.10;;;;;;;-0.79;100.00;101962.40;106237;1257;60432;-83
2024/02/19 22:49:37;;;;;;;24.30;10.70;;;;;;;-0.87;100.00;101960.21;106182;1256;72121;-84
2024/02/19 22:52:06;;;;;;;25.60;11.50;;;;;;;-0.87;100.00;101960.85;106249;1264;67422;-82
2024/02/19 22:54:36;;;;;;;20.60;10.00;;;;;;;-0.85;100.00;101960.64;106177;1258;72416;-83
2024/02/19 22:57:05;;;;;;;23.50;10.40;;;;;;;-0.89;100.00;101955.52;106265;1256;60898;-82
2024/02/19 22:59:32;;;;;;;20.00;10.50;;;;;;;-0.95;100.00;101951.33;106254;1259;60489;-82
2024/02/19 23:02:00;;;;;;;17.60;9.30;;;;;;;-0.97;100.00;101947.70;106277;1262;74174;-82
2024/02/19 23:04:28;;;;;;;20.90;10.00;;;;;;;-0.98;100.00;101952.23;105938;1257;68386;-83
2024/02/19 23:06:57;;;;;;;20.90;9.40;;;;;;;-1.02;100.00;101945.34;106089;1257;71930;-83
2024/02/19 23:09:25;;;;;;;24.50;9.90;;;;;;;-1.04;100.00;101942.49;106224;1256;60984;-82
2024/02/19 23:11:53;;;;;;;20.90;10.30;;;;;;;-0.99;100.00;101942.69;106165;1257;60588;-82
2024/02/19 23:14:21;;;;;;;21.70;10.40;;;;;;;-0.98;100.00;101938.88;106125;1257;73975;-83
2024/02/19 23:16:48;;;;;;;19.40;9.20;;;;;;;-0.98;100.00;101936.56;106229;1256;68732;-82
2024/02/19 23:19:16;;;;;;;20.20;10.50;;;;;;;-1.07;100.00;101939.11;106250;1258;72646;-83
2024/02/19 23:21:44;;;;;;;20.00;9.40;;;;;;;-1.10;100.00;101934.21;106195;1261;60563;-82
2024/02/19 23:24:12;;;;;;;24.70;11.30;;;;;;;-1.00;100.00;101933.09;106124;1262;60533;-82
2024/02/19 23:26:39;;;;;;;24.80;11.40;;;;;;;-0.98;100.00;101927.16;106296;1256;74085;-82
2024/02/19 23:29:08;;;;;;;23.00;11.40;;;;;;;-0.97;100.00;101930.48;106337;1257;68376;-82
2024/02/19 23:31:36;;;;;;;20.70;10.70;;;;;;;-0.97;100.00;101931.95;106109;1257;72660;-82
2024/02/19 23:34:04;;;;;;;18.40;9.50;;;;;;;-0.99;100.00;101932.04;106150;1257;60456;-84
2024/02/19 23:36:36;;;;;;;21.60;10.30;;;;;;;-0.95;100.00;101932.64;106449;1256;60518;-82
2024/02/19 23:39:04;;;;;;;20.80;10.10;;;;;;;-0.82;100.00;101935.98;106093;1257;72731;-82
2024/02/19 23:41:32;;;;;;;23.70;10.70;;;;;;;-0.78;100.00;101936.46;106245;1256;68324;-82
2024/02/19 23:44:00;;;;;;;28.20;13.40;;;;;;;-0.87;100.00;101938.84;106150;1260;71558;-84
2024/02/19 23:46:28;;;;;;;28.40;13.60;;;;;;;-0.97;100.00;101935.52;106224;1256;60432;-82
2024/02/19 23:48:56;;;;;;;33.10;13.20;;;;;;;-0.94;100.00;101929.23;106229;1258;60431;-84
2024/02/19 23:51:25;;;;;;;29.70;14.20;;;;;;;-0.89;100.00;101927.10;106292;1255;72579;-83
2024/02/19 23:53:52;;;;;;;31.00;12.90;;;;;;;-0.83;100.00;101921.14;106147;1256;68439;-84
2024/02/19 23:56:20;;;;;;;24.90;12.40;;;;;;;-0.92;100.00;101922.06;106253;1262;71313;-82
2024/02/19 23:58:48;;;;;;;29.00;12.50;;;;;;;-0.93;100.00;101918.98;106312;1256;60519;-84
